Capitol Logistics 337


KAFW
Fort Worth Alliance Airport
Fort Worth, Texas, US
KMIA
Miami International Airport
Miami, Florida, US

Activity Log

Date Flight Route Aircraft Duration
02/16/2019 CPX337 KUSSO5 ZALEA SWB HRV Q105 BLVNS Y290 BAGGS SSCOT5 B763 2h 33m

Route Details

Aircraft Information
Primary: Boeing 767-300BDSF
Backup: Not Available
Route Data
Distance: 989nm
Sched. Duration: 3h 00m
Avg. Duration: 2h 33m (-67m)
Times Flown: 1
Recm'd Route: KUSSO5 ZALEA SWB HRV Q105 BLVNS Y290 BAGGS SSCOT5
Planned Altitude: 37,000ft
Origin Wx: KAFW 272153Z 24009KT 10SM CLR 17/M07 A3021 RMK AO2 SLP233 T01721072
Dest. Wx: KMIA 272153Z 35007KT 10SM FEW030 FEW042 SCT160 19/04 A3012 RMK AO2 SLP199 T01940044
Notes:

Financial History
Total Freight: 102,350lbs
Average Load: 102,350lbs/flt
Fuel Used: 27,669lbs
Avg. Fuel Used: 27,669lbs/flt
Fuel Expense: $22,412
Avg. Fuel Expense: $22,412
Avg. Fuel Cost: $0.81/lbs
Total Gross Income: $132,032
Pilot Pay: $229
Total Expenses: $14,311
Total Revenue: $94,699
Average Revenue: $132,031.50